sensor_id;sensor_type;location;lat;lon;timestamp;P1;durP1;ratioP1;P2;durP2;ratioP2
4794;SDS011;2411;47.060;15.064;2023-08-24T00:00:26;11.27;;;7.47;;
4794;SDS011;2411;47.060;15.064;2023-08-24T00:02:53;11.57;;;7.73;;
4794;SDS011;2411;47.060;15.064;2023-08-24T00:05:21;12.90;;;7.87;;
4794;SDS011;2411;47.060;15.064;2023-08-24T00:07:48;8.80;;;6.70;;
4794;SDS011;2411;47.060;15.064;2023-08-24T00:10:16;15.37;;;7.70;;
4794;SDS011;2411;47.060;15.064;2023-08-24T00:12:44;13.40;;;8.10;;
4794;SDS011;2411;47.060;15.064;2023-08-24T00:15:11;13.57;;;7.70;;
4794;SDS011;2411;47.060;15.064;2023-08-24T00:17:39;14.03;;;7.40;;
4794;SDS011;2411;47.060;15.064;2023-08-24T00:20:07;11.47;;;7.73;;
4794;SDS011;2411;47.060;15.064;2023-08-24T00:22:56;12.27;;;7.77;;
4794;SDS011;2411;47.060;15.064;2023-08-24T00:25:23;13.53;;;7.23;;
4794;SDS011;2411;47.060;15.064;2023-08-24T00:27:53;12.07;;;7.50;;
4794;SDS011;2411;47.060;15.064;2023-08-24T00:30:20;14.60;;;7.73;;
4794;SDS011;2411;47.060;15.064;2023-08-24T00:32:48;9.37;;;8.40;;
4794;SDS011;2411;47.060;15.064;2023-08-24T00:35:15;9.87;;;7.73;;
4794;SDS011;2411;47.060;15.064;2023-08-24T00:37:43;10.57;;;7.57;;
4794;SDS011;2411;47.060;15.064;2023-08-24T00:40:10;8.00;;;7.30;;
4794;SDS011;2411;47.060;15.064;2023-08-24T00:42:41;18.60;;;8.07;;
4794;SDS011;2411;47.060;15.064;2023-08-24T00:45:10;11.30;;;7.47;;
4794;SDS011;2411;47.060;15.064;2023-08-24T00:47:39;15.27;;;8.30;;
4794;SDS011;2411;47.060;15.064;2023-08-24T00:50:09;10.10;;;8.87;;
4794;SDS011;2411;47.060;15.064;2023-08-24T00:52:38;13.23;;;8.43;;
4794;SDS011;2411;47.060;15.064;2023-08-24T00:55:07;12.23;;;7.80;;
4794;SDS011;2411;47.060;15.064;2023-08-24T00:57:35;13.10;;;7.90;;
4794;SDS011;2411;47.060;15.064;2023-08-24T01:00:05;15.03;;;7.70;;
4794;SDS011;2411;47.060;15.064;2023-08-24T01:02:35;12.77;;;8.90;;
4794;SDS011;2411;47.060;15.064;2023-08-24T01:05:02;11.93;;;7.70;;
4794;SDS011;2411;47.060;15.064;2023-08-24T01:07:34;9.80;;;7.77;;
4794;SDS011;2411;47.060;15.064;2023-08-24T01:10:05;11.77;;;8.43;;
4794;SDS011;2411;47.060;15.064;2023-08-24T01:18:06;15.97;;;7.20;;
4794;SDS011;2411;47.060;15.064;2023-08-24T01:20:40;11.20;;;7.93;;
4794;SDS011;2411;47.060;15.064;2023-08-24T01:26:12;12.50;;;8.27;;
4794;SDS011;2411;47.060;15.064;2023-08-24T01:28:44;13.20;;;7.80;;
4794;SDS011;2411;47.060;15.064;2023-08-24T01:31:16;11.60;;;8.30;;
4794;SDS011;2411;47.060;15.064;2023-08-24T01:33:44;14.67;;;8.20;;
4794;SDS011;2411;47.060;15.064;2023-08-24T01:36:13;10.27;;;8.17;;
4794;SDS011;2411;47.060;15.064;2023-08-24T01:38:44;9.33;;;8.43;;
4794;SDS011;2411;47.060;15.064;2023-08-24T01:41:18;9.60;;;8.03;;
4794;SDS011;2411;47.060;15.064;2023-08-24T01:43:53;9.70;;;7.73;;
4794;SDS011;2411;47.060;15.064;2023-08-24T01:46:22;10.83;;;8.10;;
4794;SDS011;2411;47.060;15.064;2023-08-24T01:48:52;11.10;;;7.70;;
4794;SDS011;2411;47.060;15.064;2023-08-24T01:51:21;10.70;;;8.00;;
4794;SDS011;2411;47.060;15.064;2023-08-24T01:54:09;14.90;;;7.87;;
4794;SDS011;2411;47.060;15.064;2023-08-24T01:56:37;9.37;;;8.47;;
4794;SDS011;2411;47.060;15.064;2023-08-24T01:59:04;26.23;;;7.60;;
4794;SDS011;2411;47.060;15.064;2023-08-24T02:01:32;7.97;;;7.20;;
4794;SDS011;2411;47.060;15.064;2023-08-24T02:03:59;11.03;;;7.90;;
4794;SDS011;2411;47.060;15.064;2023-08-24T02:06:27;11.63;;;7.20;;
4794;SDS011;2411;47.060;15.064;2023-08-24T02:08:55;9.23;;;7.13;;
4794;SDS011;2411;47.060;15.064;2023-08-24T02:11:22;15.07;;;7.90;;
4794;SDS011;2411;47.060;15.064;2023-08-24T02:13:49;11.87;;;7.87;;
4794;SDS011;2411;47.060;15.064;2023-08-24T02:16:35;13.10;;;8.33;;
4794;SDS011;2411;47.060;15.064;2023-08-24T02:19:05;12.27;;;6.90;;
4794;SDS011;2411;47.060;15.064;2023-08-24T02:21:48;9.30;;;7.40;;
4794;SDS011;2411;47.060;15.064;2023-08-24T02:24:34;25.90;;;7.03;;
4794;SDS011;2411;47.060;15.064;2023-08-24T02:27:01;10.90;;;6.90;;
4794;SDS011;2411;47.060;15.064;2023-08-24T02:29:29;20.33;;;7.40;;
4794;SDS011;2411;47.060;15.064;2023-08-24T02:31:57;12.70;;;7.50;;
4794;SDS011;2411;47.060;15.064;2023-08-24T02:34:24;12.40;;;7.20;;
4794;SDS011;2411;47.060;15.064;2023-08-24T02:36:52;8.37;;;7.57;;
4794;SDS011;2411;47.060;15.064;2023-08-24T02:39:19;9.40;;;7.63;;
4794;SDS011;2411;47.060;15.064;2023-08-24T02:41:46;15.23;;;7.70;;
4794;SDS011;2411;47.060;15.064;2023-08-24T02:44:14;10.17;;;8.10;;
4794;SDS011;2411;47.060;15.064;2023-08-24T02:46:44;9.07;;;8.17;;
4794;SDS011;2411;47.060;15.064;2023-08-24T02:49:11;11.03;;;7.13;;
4794;SDS011;2411;47.060;15.064;2023-08-24T02:51:39;15.20;;;9.03;;
4794;SDS011;2411;47.060;15.064;2023-08-24T02:54:06;8.20;;;6.60;;
4794;SDS011;2411;47.060;15.064;2023-08-24T02:56:34;8.37;;;7.03;;
4794;SDS011;2411;47.060;15.064;2023-08-24T02:59:01;9.27;;;7.53;;
4794;SDS011;2411;47.060;15.064;2023-08-24T03:01:29;14.90;;;7.57;;
4794;SDS011;2411;47.060;15.064;2023-08-24T03:03:56;14.43;;;6.43;;
4794;SDS011;2411;47.060;15.064;2023-08-24T03:06:24;12.97;;;7.73;;
4794;SDS011;2411;47.060;15.064;2023-08-24T03:08:51;9.03;;;8.10;;
4794;SDS011;2411;47.060;15.064;2023-08-24T03:11:19;8.77;;;7.60;;
4794;SDS011;2411;47.060;15.064;2023-08-24T03:13:46;12.70;;;6.70;;
4794;SDS011;2411;47.060;15.064;2023-08-24T03:16:13;8.10;;;7.40;;
4794;SDS011;2411;47.060;15.064;2023-08-24T03:18:41;8.73;;;7.83;;
4794;SDS011;2411;47.060;15.064;2023-08-24T03:21:08;8.83;;;6.83;;
4794;SDS011;2411;47.060;15.064;2023-08-24T03:23:36;10.87;;;7.40;;
4794;SDS011;2411;47.060;15.064;2023-08-24T03:26:04;13.57;;;7.87;;
4794;SDS011;2411;47.060;15.064;2023-08-24T03:28:32;8.20;;;7.30;;
4794;SDS011;2411;47.060;15.064;2023-08-24T03:30:59;9.20;;;7.10;;
4794;SDS011;2411;47.060;15.064;2023-08-24T03:33:27;8.20;;;7.10;;
4794;SDS011;2411;47.060;15.064;2023-08-24T03:35:54;16.63;;;7.10;;
4794;SDS011;2411;47.060;15.064;2023-08-24T03:38:22;11.57;;;7.80;;
4794;SDS011;2411;47.060;15.064;2023-08-24T03:40:49;12.30;;;7.57;;
4794;SDS011;2411;47.060;15.064;2023-08-24T03:43:16;8.27;;;7.50;;
4794;SDS011;2411;47.060;15.064;2023-08-24T03:45:44;15.10;;;6.97;;
4794;SDS011;2411;47.060;15.064;2023-08-24T03:48:11;14.67;;;7.77;;
4794;SDS011;2411;47.060;15.064;2023-08-24T03:50:39;11.30;;;7.03;;
4794;SDS011;2411;47.060;15.064;2023-08-24T03:53:06;7.40;;;6.57;;
4794;SDS011;2411;47.060;15.064;2023-08-24T03:55:34;8.50;;;6.90;;
4794;SDS011;2411;47.060;15.064;2023-08-24T03:58:01;9.33;;;7.30;;
4794;SDS011;2411;47.060;15.064;2023-08-24T04:00:29;11.23;;;7.00;;
4794;SDS011;2411;47.060;15.064;2023-08-24T04:02:57;8.73;;;7.70;;
4794;SDS011;2411;47.060;15.064;2023-08-24T04:05:25;10.30;;;8.10;;
4794;SDS011;2411;47.060;15.064;2023-08-24T04:07:52;9.43;;;8.13;;
4794;SDS011;2411;47.060;15.064;2023-08-24T04:10:20;8.30;;;7.40;;
4794;SDS011;2411;47.060;15.064;2023-08-24T04:12:47;22.60;;;8.70;;
4794;SDS011;2411;47.060;15.064;2023-08-24T04:15:15;12.80;;;7.97;;
4794;SDS011;2411;47.060;15.064;2023-08-24T04:17:42;13.13;;;8.37;;
4794;SDS011;2411;47.060;15.064;2023-08-24T04:20:10;9.60;;;8.00;;
4794;SDS011;2411;47.060;15.064;2023-08-24T04:22:38;10.20;;;7.80;;
4794;SDS011;2411;47.060;15.064;2023-08-24T04:25:06;9.10;;;7.50;;
4794;SDS011;2411;47.060;15.064;2023-08-24T04:27:33;16.13;;;8.50;;
4794;SDS011;2411;47.060;15.064;2023-08-24T04:30:01;14.23;;;8.30;;
4794;SDS011;2411;47.060;15.064;2023-08-24T04:32:31;10.00;;;8.30;;
4794;SDS011;2411;47.060;15.064;2023-08-24T04:34:59;12.70;;;8.30;;
4794;SDS011;2411;47.060;15.064;2023-08-24T04:37:45;12.50;;;9.90;;
4794;SDS011;2411;47.060;15.064;2023-08-24T04:40:12;19.63;;;8.37;;
4794;SDS011;2411;47.060;15.064;2023-08-24T04:42:40;12.90;;;9.13;;
4794;SDS011;2411;47.060;15.064;2023-08-24T04:45:07;12.27;;;8.20;;
4794;SDS011;2411;47.060;15.064;2023-08-24T04:47:35;14.90;;;7.77;;
4794;SDS011;2411;47.060;15.064;2023-08-24T04:50:02;27.03;;;8.50;;
4794;SDS011;2411;47.060;15.064;2023-08-24T04:52:30;13.97;;;8.33;;
4794;SDS011;2411;47.060;15.064;2023-08-24T04:54:57;9.83;;;8.43;;
4794;SDS011;2411;47.060;15.064;2023-08-24T04:57:25;17.97;;;8.93;;
4794;SDS011;2411;47.060;15.064;2023-08-24T04:59:52;11.60;;;8.17;;
4794;SDS011;2411;47.060;15.064;2023-08-24T05:02:20;12.30;;;7.57;;
4794;SDS011;2411;47.060;15.064;2023-08-24T05:04:47;7.57;;;6.83;;
4794;SDS011;2411;47.060;15.064;2023-08-24T05:07:15;12.53;;;8.10;;
4794;SDS011;2411;47.060;15.064;2023-08-24T05:09:44;9.77;;;7.40;;
4794;SDS011;2411;47.060;15.064;2023-08-24T05:12:11;10.73;;;6.73;;
4794;SDS011;2411;47.060;15.064;2023-08-24T05:14:39;14.43;;;7.03;;
4794;SDS011;2411;47.060;15.064;2023-08-24T05:17:06;18.37;;;7.80;;
4794;SDS011;2411;47.060;15.064;2023-08-24T05:19:34;14.63;;;7.50;;
4794;SDS011;2411;47.060;15.064;2023-08-24T05:22:01;7.60;;;6.90;;
4794;SDS011;2411;47.060;15.064;2023-08-24T05:24:29;12.63;;;6.97;;
4794;SDS011;2411;47.060;15.064;2023-08-24T05:26:56;9.70;;;7.27;;
4794;SDS011;2411;47.060;15.064;2023-08-24T05:29:24;10.33;;;6.97;;
4794;SDS011;2411;47.060;15.064;2023-08-24T05:31:51;14.50;;;6.77;;
4794;SDS011;2411;47.060;15.064;2023-08-24T05:34:18;10.03;;;6.93;;
4794;SDS011;2411;47.060;15.064;2023-08-24T05:36:46;11.20;;;6.47;;
4794;SDS011;2411;47.060;15.064;2023-08-24T05:39:13;9.40;;;5.50;;
4794;SDS011;2411;47.060;15.064;2023-08-24T05:41:41;17.63;;;6.53;;
4794;SDS011;2411;47.060;15.064;2023-08-24T05:44:08;10.00;;;6.27;;
4794;SDS011;2411;47.060;15.064;2023-08-24T05:46:35;10.20;;;6.77;;
4794;SDS011;2411;47.060;15.064;2023-08-24T05:49:03;11.20;;;6.90;;
4794;SDS011;2411;47.060;15.064;2023-08-24T05:51:30;14.83;;;7.07;;
4794;SDS011;2411;47.060;15.064;2023-08-24T05:53:58;10.20;;;6.13;;
4794;SDS011;2411;47.060;15.064;2023-08-24T05:56:25;11.77;;;6.10;;
4794;SDS011;2411;47.060;15.064;2023-08-24T05:58:53;9.43;;;6.47;;
4794;SDS011;2411;47.060;15.064;2023-08-24T06:01:21;13.70;;;6.47;;
4794;SDS011;2411;47.060;15.064;2023-08-24T06:03:49;8.20;;;5.90;;
4794;SDS011;2411;47.060;15.064;2023-08-24T06:06:16;7.30;;;5.93;;
4794;SDS011;2411;47.060;15.064;2023-08-24T06:08:44;9.00;;;6.10;;
4794;SDS011;2411;47.060;15.064;2023-08-24T06:11:11;9.10;;;5.83;;
4794;SDS011;2411;47.060;15.064;2023-08-24T06:13:39;7.90;;;6.27;;
4794;SDS011;2411;47.060;15.064;2023-08-24T06:16:06;8.27;;;7.30;;
4794;SDS011;2411;47.060;15.064;2023-08-24T06:18:33;13.80;;;5.90;;
4794;SDS011;2411;47.060;15.064;2023-08-24T06:21:01;8.07;;;5.27;;
4794;SDS011;2411;47.060;15.064;2023-08-24T06:23:28;6.20;;;5.50;;
4794;SDS011;2411;47.060;15.064;2023-08-24T06:25:56;6.70;;;6.00;;
4794;SDS011;2411;47.060;15.064;2023-08-24T06:28:23;8.27;;;5.47;;
4794;SDS011;2411;47.060;15.064;2023-08-24T06:30:51;10.77;;;6.10;;
4794;SDS011;2411;47.060;15.064;2023-08-24T06:33:18;10.97;;;6.03;;
4794;SDS011;2411;47.060;15.064;2023-08-24T06:36:04;9.83;;;6.20;;
4794;SDS011;2411;47.060;15.064;2023-08-24T06:38:50;8.00;;;5.87;;
4794;SDS011;2411;47.060;15.064;2023-08-24T06:41:19;16.80;;;5.73;;
4794;SDS011;2411;47.060;15.064;2023-08-24T06:43:46;13.33;;;6.10;;
4794;SDS011;2411;47.060;15.064;2023-08-24T06:46:14;8.87;;;5.87;;
4794;SDS011;2411;47.060;15.064;2023-08-24T06:48:59;10.03;;;5.77;;
4794;SDS011;2411;47.060;15.064;2023-08-24T06:51:45;8.60;;;5.83;;
4794;SDS011;2411;47.060;15.064;2023-08-24T06:54:31;7.43;;;5.97;;
4794;SDS011;2411;47.060;15.064;2023-08-24T06:56:58;6.37;;;5.77;;
4794;SDS011;2411;47.060;15.064;2023-08-24T06:59:26;8.77;;;6.60;;
4794;SDS011;2411;47.060;15.064;2023-08-24T07:01:53;8.20;;;5.73;;
4794;SDS011;2411;47.060;15.064;2023-08-24T07:04:21;10.63;;;5.73;;
4794;SDS011;2411;47.060;15.064;2023-08-24T07:06:48;11.13;;;6.80;;
4794;SDS011;2411;47.060;15.064;2023-08-24T07:09:18;5.90;;;5.30;;
4794;SDS011;2411;47.060;15.064;2023-08-24T07:11:46;5.83;;;5.33;;
4794;SDS011;2411;47.060;15.064;2023-08-24T07:14:14;8.90;;;5.83;;
4794;SDS011;2411;47.060;15.064;2023-08-24T07:16:41;20.20;;;8.57;;
4794;SDS011;2411;47.060;15.064;2023-08-24T07:19:09;8.70;;;5.30;;
4794;SDS011;2411;47.060;15.064;2023-08-24T07:21:37;9.67;;;5.73;;
4794;SDS011;2411;47.060;15.064;2023-08-24T07:24:04;12.93;;;5.30;;
4794;SDS011;2411;47.060;15.064;2023-08-24T07:26:32;11.97;;;5.70;;
4794;SDS011;2411;47.060;15.064;2023-08-24T07:29:00;10.90;;;5.30;;
4794;SDS011;2411;47.060;15.064;2023-08-24T07:31:27;8.43;;;6.07;;
4794;SDS011;2411;47.060;15.064;2023-08-24T07:33:55;12.50;;;5.90;;
4794;SDS011;2411;47.060;15.064;2023-08-24T07:36:22;19.00;;;6.90;;
4794;SDS011;2411;47.060;15.064;2023-08-24T07:38:50;9.77;;;6.17;;
4794;SDS011;2411;47.060;15.064;2023-08-24T07:41:17;10.20;;;6.17;;
4794;SDS011;2411;47.060;15.064;2023-08-24T07:43:45;6.47;;;5.73;;
4794;SDS011;2411;47.060;15.064;2023-08-24T07:46:12;11.30;;;5.70;;
4794;SDS011;2411;47.060;15.064;2023-08-24T07:48:40;11.70;;;5.80;;
4794;SDS011;2411;47.060;15.064;2023-08-24T07:51:07;10.37;;;6.67;;
4794;SDS011;2411;47.060;15.064;2023-08-24T07:53:35;9.90;;;6.20;;
4794;SDS011;2411;47.060;15.064;2023-08-24T07:56:03;6.63;;;6.00;;
4794;SDS011;2411;47.060;15.064;2023-08-24T07:58:30;13.30;;;6.53;;
4794;SDS011;2411;47.060;15.064;2023-08-24T08:00:59;8.80;;;6.13;;
4794;SDS011;2411;47.060;15.064;2023-08-24T08:03:46;13.40;;;5.90;;
4794;SDS011;2411;47.060;15.064;2023-08-24T08:06:13;12.97;;;6.30;;
4794;SDS011;2411;47.060;15.064;2023-08-24T08:08:41;6.93;;;5.77;;
4794;SDS011;2411;47.060;15.064;2023-08-24T08:11:08;10.87;;;6.10;;
4794;SDS011;2411;47.060;15.064;2023-08-24T08:13:35;7.43;;;5.33;;
4794;SDS011;2411;47.060;15.064;2023-08-24T08:16:03;7.10;;;5.80;;
4794;SDS011;2411;47.060;15.064;2023-08-24T08:18:32;6.93;;;6.17;;
4794;SDS011;2411;47.060;15.064;2023-08-24T08:21:00;13.10;;;5.83;;
4794;SDS011;2411;47.060;15.064;2023-08-24T08:23:30;14.73;;;5.90;;
4794;SDS011;2411;47.060;15.064;2023-08-24T08:25:57;13.77;;;6.47;;
4794;SDS011;2411;47.060;15.064;2023-08-24T08:28:25;6.03;;;5.47;;
4794;SDS011;2411;47.060;15.064;2023-08-24T08:30:52;12.00;;;6.53;;
4794;SDS011;2411;47.060;15.064;2023-08-24T08:33:19;8.23;;;6.00;;
4794;SDS011;2411;47.060;15.064;2023-08-24T08:35:48;7.07;;;5.77;;
4794;SDS011;2411;47.060;15.064;2023-08-24T08:38:15;13.90;;;6.50;;
4794;SDS011;2411;47.060;15.064;2023-08-24T08:40:43;9.70;;;6.20;;
4794;SDS011;2411;47.060;15.064;2023-08-24T08:43:12;7.43;;;5.90;;
4794;SDS011;2411;47.060;15.064;2023-08-24T08:45:39;8.23;;;6.73;;
4794;SDS011;2411;47.060;15.064;2023-08-24T08:48:07;10.37;;;7.20;;
4794;SDS011;2411;47.060;15.064;2023-08-24T08:50:36;7.03;;;6.30;;
4794;SDS011;2411;47.060;15.064;2023-08-24T08:53:03;8.13;;;5.73;;
4794;SDS011;2411;47.060;15.064;2023-08-24T08:55:31;8.60;;;6.60;;
4794;SDS011;2411;47.060;15.064;2023-08-24T08:57:58;9.03;;;6.13;;
4794;SDS011;2411;47.060;15.064;2023-08-24T09:00:28;7.37;;;6.67;;
4794;SDS011;2411;47.060;15.064;2023-08-24T09:02:57;8.43;;;6.20;;
4794;SDS011;2411;47.060;15.064;2023-08-24T09:05:26;12.23;;;6.40;;
4794;SDS011;2411;47.060;15.064;2023-08-24T09:07:54;6.50;;;5.90;;
4794;SDS011;2411;47.060;15.064;2023-08-24T09:10:23;11.23;;;6.23;;
4794;SDS011;2411;47.060;15.064;2023-08-24T09:12:50;11.50;;;6.23;;
4794;SDS011;2411;47.060;15.064;2023-08-24T09:15:24;6.67;;;6.07;;
4794;SDS011;2411;47.060;15.064;2023-08-24T09:17:53;6.53;;;5.90;;
4794;SDS011;2411;47.060;15.064;2023-08-24T09:20:22;9.60;;;6.67;;
4794;SDS011;2411;47.060;15.064;2023-08-24T09:22:53;11.33;;;6.77;;
4794;SDS011;2411;47.060;15.064;2023-08-24T09:25:24;10.00;;;6.50;;
4794;SDS011;2411;47.060;15.064;2023-08-24T09:30:31;12.03;;;6.70;;
4794;SDS011;2411;47.060;15.064;2023-08-24T09:33:04;9.17;;;6.40;;
4794;SDS011;2411;47.060;15.064;2023-08-24T09:35:37;6.67;;;6.07;;
4794;SDS011;2411;47.060;15.064;2023-08-24T09:38:20;9.40;;;7.30;;
4794;SDS011;2411;47.060;15.064;2023-08-24T09:40:52;7.67;;;6.90;;
4794;SDS011;2411;47.060;15.064;2023-08-24T09:43:21;10.20;;;7.40;;
4794;SDS011;2411;47.060;15.064;2023-08-24T09:45:53;9.57;;;6.60;;
4794;SDS011;2411;47.060;15.064;2023-08-24T09:48:22;11.83;;;7.90;;
4794;SDS011;2411;47.060;15.064;2023-08-24T09:50:54;11.93;;;6.87;;
4794;SDS011;2411;47.060;15.064;2023-08-24T09:53:23;7.90;;;6.80;;
4794;SDS011;2411;47.060;15.064;2023-08-24T09:55:55;8.97;;;7.00;;
4794;SDS011;2411;47.060;15.064;2023-08-24T09:58:26;7.20;;;6.50;;
4794;SDS011;2411;47.060;15.064;2023-08-24T10:00:55;7.30;;;6.43;;
4794;SDS011;2411;47.060;15.064;2023-08-24T10:03:25;10.70;;;6.50;;
4794;SDS011;2411;47.060;15.064;2023-08-24T10:05:54;7.47;;;6.70;;
4794;SDS011;2411;47.060;15.064;2023-08-24T10:08:35;8.13;;;7.03;;
4794;SDS011;2411;47.060;15.064;2023-08-24T10:11:06;9.87;;;6.57;;
4794;SDS011;2411;47.060;15.064;2023-08-24T10:13:43;7.97;;;7.03;;
4794;SDS011;2411;47.060;15.064;2023-08-24T10:16:35;13.30;;;7.30;;
4794;SDS011;2411;47.060;15.064;2023-08-24T10:19:03;7.70;;;6.90;;
4794;SDS011;2411;47.060;15.064;2023-08-24T10:21:31;8.23;;;6.50;;
4794;SDS011;2411;47.060;15.064;2023-08-24T10:23:59;10.13;;;7.20;;
4794;SDS011;2411;47.060;15.064;2023-08-24T10:26:28;12.33;;;7.20;;
4794;SDS011;2411;47.060;15.064;2023-08-24T10:28:57;8.93;;;7.03;;
4794;SDS011;2411;47.060;15.064;2023-08-24T10:31:25;9.10;;;6.47;;
4794;SDS011;2411;47.060;15.064;2023-08-24T10:33:54;9.40;;;6.93;;
4794;SDS011;2411;47.060;15.064;2023-08-24T10:36:22;13.33;;;6.67;;
4794;SDS011;2411;47.060;15.064;2023-08-24T10:38:50;10.73;;;7.00;;
4794;SDS011;2411;47.060;15.064;2023-08-24T10:41:17;8.53;;;7.00;;
4794;SDS011;2411;47.060;15.064;2023-08-24T10:43:50;7.53;;;6.80;;
4794;SDS011;2411;47.060;15.064;2023-08-24T10:46:17;10.20;;;7.47;;
4794;SDS011;2411;47.060;15.064;2023-08-24T10:53:52;12.80;;;7.57;;
4794;SDS011;2411;47.060;15.064;2023-08-24T10:56:29;7.63;;;6.83;;
4794;SDS011;2411;47.060;15.064;2023-08-24T10:59:24;7.30;;;6.60;;
4794;SDS011;2411;47.060;15.064;2023-08-24T11:01:58;7.73;;;7.03;;
4794;SDS011;2411;47.060;15.064;2023-08-24T11:04:25;9.20;;;7.37;;
4794;SDS011;2411;47.060;15.064;2023-08-24T11:06:54;8.13;;;7.20;;
4794;SDS011;2411;47.060;15.064;2023-08-24T11:09:24;8.83;;;7.10;;
4794;SDS011;2411;47.060;15.064;2023-08-24T11:12:01;9.70;;;7.63;;
4794;SDS011;2411;47.060;15.064;2023-08-24T11:14:30;8.10;;;6.77;;
4794;SDS011;2411;47.060;15.064;2023-08-24T11:17:01;8.40;;;7.60;;
4794;SDS011;2411;47.060;15.064;2023-08-24T11:19:51;8.43;;;7.50;;
4794;SDS011;2411;47.060;15.064;2023-08-24T11:22:19;9.33;;;7.43;;
4794;SDS011;2411;47.060;15.064;2023-08-24T11:24:50;9.20;;;7.63;;
4794;SDS011;2411;47.060;15.064;2023-08-24T11:27:17;17.83;;;7.10;;
4794;SDS011;2411;47.060;15.064;2023-08-24T11:29:57;14.43;;;7.20;;
4794;SDS011;2411;47.060;15.064;2023-08-24T11:32:26;10.80;;;8.17;;
4794;SDS011;2411;47.060;15.064;2023-08-24T11:34:53;7.83;;;7.00;;
4794;SDS011;2411;47.060;15.064;2023-08-24T11:37:21;12.67;;;7.70;;
4794;SDS011;2411;47.060;15.064;2023-08-24T11:39:48;12.80;;;8.50;;
4794;SDS011;2411;47.060;15.064;2023-08-24T11:42:15;8.73;;;7.90;;
4794;SDS011;2411;47.060;15.064;2023-08-24T11:44:46;9.40;;;7.77;;
4794;SDS011;2411;47.060;15.064;2023-08-24T11:47:13;10.60;;;7.53;;
4794;SDS011;2411;47.060;15.064;2023-08-24T11:49:41;8.60;;;7.37;;
4794;SDS011;2411;47.060;15.064;2023-08-24T11:52:09;13.03;;;7.63;;
4794;SDS011;2411;47.060;15.064;2023-08-24T11:54:36;9.57;;;7.90;;
4794;SDS011;2411;47.060;15.064;2023-08-24T11:57:09;9.67;;;7.20;;
4794;SDS011;2411;47.060;15.064;2023-08-24T11:59:37;7.27;;;6.37;;
4794;SDS011;2411;47.060;15.064;2023-08-24T12:02:12;8.60;;;7.80;;
4794;SDS011;2411;47.060;15.064;2023-08-24T12:04:40;11.37;;;7.47;;
4794;SDS011;2411;47.060;15.064;2023-08-24T12:07:13;8.57;;;7.63;;
4794;SDS011;2411;47.060;15.064;2023-08-24T12:09:41;8.63;;;7.83;;
4794;SDS011;2411;47.060;15.064;2023-08-24T12:12:13;12.17;;;7.40;;
4794;SDS011;2411;47.060;15.064;2023-08-24T12:14:44;8.70;;;7.00;;
4794;SDS011;2411;47.060;15.064;2023-08-24T12:17:12;9.33;;;7.43;;
4794;SDS011;2411;47.060;15.064;2023-08-24T12:19:43;10.67;;;7.67;;
4794;SDS011;2411;47.060;15.064;2023-08-24T12:22:15;9.83;;;6.93;;
4794;SDS011;2411;47.060;15.064;2023-08-24T12:24:44;8.30;;;7.20;;
4794;SDS011;2411;47.060;15.064;2023-08-24T12:27:25;8.73;;;7.30;;
4794;SDS011;2411;47.060;15.064;2023-08-24T12:29:53;10.83;;;7.93;;
4794;SDS011;2411;47.060;15.064;2023-08-24T12:32:20;9.57;;;7.77;;
4794;SDS011;2411;47.060;15.064;2023-08-24T12:34:52;10.27;;;7.53;;
4794;SDS011;2411;47.060;15.064;2023-08-24T12:37:21;8.73;;;7.07;;
4794;SDS011;2411;47.060;15.064;2023-08-24T12:39:49;11.70;;;7.50;;
4794;SDS011;2411;47.060;15.064;2023-08-24T12:42:16;9.00;;;7.10;;
4794;SDS011;2411;47.060;15.064;2023-08-24T12:44:43;8.13;;;7.33;;
4794;SDS011;2411;47.060;15.064;2023-08-24T12:47:10;12.53;;;7.60;;
4794;SDS011;2411;47.060;15.064;2023-08-24T12:49:37;7.87;;;7.07;;
4794;SDS011;2411;47.060;15.064;2023-08-24T12:52:05;11.63;;;6.73;;
4794;SDS011;2411;47.060;15.064;2023-08-24T12:54:32;9.13;;;6.93;;
4794;SDS011;2411;47.060;15.064;2023-08-24T12:56:59;7.60;;;6.77;;
4794;SDS011;2411;47.060;15.064;2023-08-24T12:59:26;10.73;;;7.47;;
4794;SDS011;2411;47.060;15.064;2023-08-24T13:01:54;8.73;;;7.77;;
4794;SDS011;2411;47.060;15.064;2023-08-24T13:04:21;9.83;;;7.33;;
4794;SDS011;2411;47.060;15.064;2023-08-24T13:06:48;8.17;;;7.37;;
4794;SDS011;2411;47.060;15.064;2023-08-24T13:09:15;10.50;;;7.40;;
4794;SDS011;2411;47.060;15.064;2023-08-24T13:11:43;7.47;;;6.73;;
4794;SDS011;2411;47.060;15.064;2023-08-24T13:14:10;7.20;;;6.50;;
4794;SDS011;2411;47.060;15.064;2023-08-24T13:16:38;7.90;;;6.97;;
4794;SDS011;2411;47.060;15.064;2023-08-24T13:19:05;9.97;;;6.83;;
4794;SDS011;2411;47.060;15.064;2023-08-24T13:21:32;8.30;;;7.17;;
4794;SDS011;2411;47.060;15.064;2023-08-24T13:24:00;8.77;;;7.30;;
4794;SDS011;2411;47.060;15.064;2023-08-24T13:26:27;13.10;;;7.37;;
4794;SDS011;2411;47.060;15.064;2023-08-24T13:28:54;8.00;;;6.67;;
4794;SDS011;2411;47.060;15.064;2023-08-24T13:31:22;7.67;;;6.97;;
4794;SDS011;2411;47.060;15.064;2023-08-24T13:33:50;9.77;;;7.20;;
4794;SDS011;2411;47.060;15.064;2023-08-24T13:36:17;9.83;;;7.17;;
4794;SDS011;2411;47.060;15.064;2023-08-24T13:38:44;7.37;;;6.77;;
4794;SDS011;2411;47.060;15.064;2023-08-24T13:41:12;11.50;;;7.27;;
4794;SDS011;2411;47.060;15.064;2023-08-24T13:43:39;8.87;;;6.40;;
4794;SDS011;2411;47.060;15.064;2023-08-24T13:46:08;8.50;;;7.60;;
4794;SDS011;2411;47.060;15.064;2023-08-24T13:48:36;8.80;;;7.47;;
4794;SDS011;2411;47.060;15.064;2023-08-24T13:51:03;8.87;;;7.30;;
4794;SDS011;2411;47.060;15.064;2023-08-24T13:53:31;17.40;;;7.37;;
4794;SDS011;2411;47.060;15.064;2023-08-24T13:55:58;8.30;;;7.20;;
4794;SDS011;2411;47.060;15.064;2023-08-24T13:58:25;8.83;;;7.93;;
4794;SDS011;2411;47.060;15.064;2023-08-24T14:00:56;10.33;;;7.13;;
4794;SDS011;2411;47.060;15.064;2023-08-24T14:03:24;8.77;;;6.87;;
4794;SDS011;2411;47.060;15.064;2023-08-24T14:05:55;8.33;;;7.53;;
4794;SDS011;2411;47.060;15.064;2023-08-24T14:08:23;9.83;;;7.03;;
4794;SDS011;2411;47.060;15.064;2023-08-24T14:10:51;9.30;;;7.77;;
4794;SDS011;2411;47.060;15.064;2023-08-24T14:13:19;11.60;;;7.47;;
4794;SDS011;2411;47.060;15.064;2023-08-24T14:15:50;9.37;;;8.10;;
4794;SDS011;2411;47.060;15.064;2023-08-24T14:18:18;9.00;;;7.60;;
4794;SDS011;2411;47.060;15.064;2023-08-24T14:20:46;9.60;;;7.57;;
4794;SDS011;2411;47.060;15.064;2023-08-24T14:23:14;7.50;;;6.90;;
4794;SDS011;2411;47.060;15.064;2023-08-24T14:25:41;10.40;;;8.47;;
4794;SDS011;2411;47.060;15.064;2023-08-24T14:28:09;10.33;;;7.80;;
4794;SDS011;2411;47.060;15.064;2023-08-24T14:30:38;11.00;;;7.07;;
4794;SDS011;2411;47.060;15.064;2023-08-24T14:33:06;11.73;;;7.63;;
4794;SDS011;2411;47.060;15.064;2023-08-24T14:35:33;9.73;;;7.00;;
4794;SDS011;2411;47.060;15.064;2023-08-24T14:38:00;9.77;;;8.30;;
4794;SDS011;2411;47.060;15.064;2023-08-24T14:40:27;12.50;;;7.87;;
4794;SDS011;2411;47.060;15.064;2023-08-24T14:42:55;12.77;;;7.90;;
4794;SDS011;2411;47.060;15.064;2023-08-24T14:45:22;14.10;;;8.40;;
4794;SDS011;2411;47.060;15.064;2023-08-24T14:47:49;10.80;;;6.93;;
4794;SDS011;2411;47.060;15.064;2023-08-24T14:50:17;8.10;;;7.10;;
4794;SDS011;2411;47.060;15.064;2023-08-24T14:52:44;12.33;;;8.20;;
4794;SDS011;2411;47.060;15.064;2023-08-24T14:55:12;13.93;;;7.57;;
4794;SDS011;2411;47.060;15.064;2023-08-24T14:57:39;12.30;;;8.10;;
4794;SDS011;2411;47.060;15.064;2023-08-24T15:00:07;8.30;;;7.20;;
4794;SDS011;2411;47.060;15.064;2023-08-24T15:02:36;9.37;;;6.93;;
4794;SDS011;2411;47.060;15.064;2023-08-24T15:05:04;10.93;;;7.70;;
4794;SDS011;2411;47.060;15.064;2023-08-24T15:07:31;8.33;;;7.63;;
4794;SDS011;2411;47.060;15.064;2023-08-24T15:09:59;16.33;;;8.00;;
4794;SDS011;2411;47.060;15.064;2023-08-24T15:12:26;10.03;;;7.73;;
4794;SDS011;2411;47.060;15.064;2023-08-24T15:14:57;9.20;;;8.30;;
4794;SDS011;2411;47.060;15.064;2023-08-24T15:17:26;7.77;;;6.90;;
4794;SDS011;2411;47.060;15.064;2023-08-24T15:19:55;7.77;;;6.87;;
4794;SDS011;2411;47.060;15.064;2023-08-24T15:22:23;8.57;;;7.17;;